Time;durP1;ratioP1;P1;durP2;ratioP2;P2;SDS_P1;SDS_P2;PMS_P1;PMS_P2;Temp;Humidity;BMP_temperature;BMP_pressure;BME280_temperature;BME280_humidity;BME280_pressure;Samples;Min_cycle;Max_cycle;Signal;HPM_P1;HPM_P2
2024/01/28 00:01:38;;;;;;;22.42;9.75;;;3.60;89.00;;;;;;5071447;28;20035;-31
2024/01/28 00:04:03;;;;;;;15.45;8.55;;;3.60;89.00;;;;;;5073038;28;20021;-34
2024/01/28 00:06:29;;;;;;;15.30;7.47;;;3.60;89.00;;;;;;5073074;28;20024;-30
2024/01/28 00:08:54;;;;;;;18.60;8.55;;;3.60;89.10;;;;;;5072808;28;20484;-31
2024/01/28 00:11:20;;;;;;;14.38;7.30;;;3.60;89.00;;;;;;5072564;28;20025;-30
2024/01/28 00:13:46;;;;;;;15.65;7.35;;;3.60;89.00;;;;;;5072605;28;20028;-33
2024/01/28 00:16:16;;;;;;;13.48;6.45;;;3.60;89.00;;;;;;5072540;28;20497;-32
2024/01/28 00:18:41;;;;;;;13.95;6.35;;;3.60;89.00;;;;;;5072663;28;20043;-31
2024/01/28 00:21:07;;;;;;;17.88;9.00;;;3.60;89.00;;;;;;5072326;28;20559;-32
2024/01/28 00:23:33;;;;;;;17.58;7.90;;;3.60;89.00;;;;;;5072392;28;20554;-32
2024/01/28 00:25:59;;;;;;;16.55;6.93;;;3.60;89.00;;;;;;5072352;28;20028;-32
2024/01/28 00:28:24;;;;;;;15.80;6.82;;;3.60;88.90;;;;;;5071147;28;20062;-30
2024/01/28 00:30:50;;;;;;;11.63;6.43;;;3.60;89.00;;;;;;5072538;28;20499;-30
2024/01/28 00:33:15;;;;;;;13.27;5.95;;;3.60;89.00;;;;;;5072618;28;20454;-30
2024/01/28 00:35:41;;;;;;;14.02;5.70;;;3.60;89.00;;;;;;5072004;28;20405;-35
2024/01/28 00:38:06;;;;;;;12.60;6.10;;;3.60;88.90;;;;;;5072208;28;20024;-33
2024/01/28 00:40:33;;;;;;;13.35;6.10;;;3.60;88.90;;;;;;5072145;28;20089;-29
2024/01/28 00:42:58;;;;;;;9.63;5.78;;;3.50;88.90;;;;;;5071963;28;20527;-32
2024/01/28 00:45:24;;;;;;;10.27;6.20;;;3.50;88.90;;;;;;5072416;28;20040;-31
2024/01/28 00:47:50;;;;;;;10.57;5.70;;;3.50;88.90;;;;;;5072229;28;20054;-34
2024/01/28 00:50:15;;;;;;;11.07;5.88;;;3.40;88.90;;;;;;5072503;28;20021;-34
2024/01/28 00:52:41;;;;;;;11.05;6.32;;;3.40;89.00;;;;;;5070588;28;20451;-34
2024/01/28 00:55:08;;;;;;;12.77;5.82;;;3.40;89.00;;;;;;5072045;28;20443;-31
2024/01/28 00:57:33;;;;;;;13.18;5.80;;;3.40;89.00;;;;;;5072158;28;20033;-31
2024/01/28 00:59:59;;;;;;;13.10;6.22;;;3.40;89.10;;;;;;5071826;28;20040;-32
2024/01/28 01:02:25;;;;;;;10.57;6.18;;;3.40;89.10;;;;;;5070987;28;20025;-38
2024/01/28 01:04:50;;;;;;;14.07;5.97;;;3.40;89.10;;;;;;5071377;28;20389;-32
2024/01/28 01:07:16;;;;;;;11.10;5.82;;;3.40;89.10;;;;;;5071685;28;20357;-34
2024/01/28 01:09:41;;;;;;;11.65;6.22;;;3.40;89.00;;;;;;5070377;28;20082;-33
2024/01/28 01:12:07;;;;;;;14.52;6.53;;;3.40;89.00;;;;;;5071900;28;20070;-32
2024/01/28 01:14:35;;;;;;;12.38;6.28;;;3.40;88.90;;;;;;5071699;28;20439;-33
2024/01/28 01:17:02;;;;;;;13.05;6.45;;;3.40;89.00;;;;;;5072060;28;20024;-36
2024/01/28 01:19:27;;;;;;;12.73;6.50;;;3.40;89.10;;;;;;5071860;28;20060;-35
2024/01/28 01:21:53;;;;;;;10.50;5.75;;;3.30;89.10;;;;;;5071458;28;20064;-35
2024/01/28 01:24:18;;;;;;;11.90;5.55;;;3.30;89.10;;;;;;5071711;28;20029;-37
2024/01/28 01:26:44;;;;;;;11.70;5.72;;;3.30;89.10;;;;;;5071920;28;20024;-33
2024/01/28 01:29:10;;;;;;;12.77;5.93;;;3.30;89.10;;;;;;5071429;28;20023;-36
2024/01/28 01:31:35;;;;;;;12.05;5.82;;;3.30;89.00;;;;;;5071372;28;20024;-36
2024/01/28 01:34:01;;;;;;;9.73;5.80;;;3.20;89.00;;;;;;5071616;28;20056;-37
2024/01/28 01:36:27;;;;;;;11.27;5.50;;;3.20;89.10;;;;;;5071848;28;20467;-34
2024/01/28 01:38:52;;;;;;;11.93;5.82;;;3.20;89.10;;;;;;5071458;28;20091;-36
2024/01/28 01:41:18;;;;;;;12.18;5.93;;;3.20;89.20;;;;;;5071140;28;20051;-36
2024/01/28 01:43:43;;;;;;;12.52;5.60;;;3.20;89.20;;;;;;5071212;28;20032;-32
2024/01/28 01:46:10;;;;;;;10.77;5.60;;;3.20;89.20;;;;;;5071369;28;20021;-33
2024/01/28 01:48:36;;;;;;;14.75;5.68;;;3.20;89.30;;;;;;5071385;28;20033;-31
2024/01/28 01:51:01;;;;;;;14.75;6.03;;;3.20;89.20;;;;;;5069853;28;20086;-36
2024/01/28 01:53:28;;;;;;;15.70;6.10;;;3.20;89.10;;;;;;5071294;28;20078;-35
2024/01/28 01:55:54;;;;;;;11.40;5.47;;;3.20;89.10;;;;;;5071224;28;20029;-32
2024/01/28 01:58:19;;;;;;;14.93;5.75;;;3.20;89.20;;;;;;5071243;28;20036;-35
2024/01/28 02:00:45;;;;;;;9.30;5.28;;;3.20;89.20;;;;;;5070972;28;20052;-36
2024/01/28 02:03:12;;;;;;;13.15;6.13;;;3.10;89.20;;;;;;5070949;28;20028;-34
2024/01/28 02:05:39;;;;;;;11.15;5.40;;;3.10;89.20;;;;;;5071015;28;20020;-35
2024/01/28 02:08:05;;;;;;;13.45;5.82;;;3.10;89.20;;;;;;5071108;28;20086;-32
2024/01/28 02:10:30;;;;;;;11.90;6.18;;;3.10;89.20;;;;;;5071071;28;20067;-31
2024/01/28 02:12:56;;;;;;;12.77;5.35;;;3.10;89.20;;;;;;5071269;28;20048;-36
2024/01/28 02:15:22;;;;;;;10.93;5.25;;;3.10;89.20;;;;;;5072363;28;20067;-32
2024/01/28 02:17:47;;;;;;;14.88;5.90;;;3.10;89.30;;;;;;5074561;28;20056;-35
2024/01/28 02:20:13;;;;;;;13.55;5.38;;;3.00;89.20;;;;;;5074575;28;20077;-37
2024/01/28 02:22:39;;;;;;;11.77;5.20;;;3.00;89.30;;;;;;5074503;28;20021;-38
2024/01/28 02:25:06;;;;;;;11.50;5.10;;;2.90;89.30;;;;;;5074695;28;20143;-32
2024/01/28 02:27:31;;;;;;;12.93;5.50;;;2.90;89.30;;;;;;5074801;28;20032;-37
2024/01/28 02:29:57;;;;;;;12.48;5.05;;;2.90;89.40;;;;;;5074720;28;20020;-33
2024/01/28 02:32:22;;;;;;;11.93;4.97;;;2.90;89.50;;;;;;5074279;28;20029;-39
2024/01/28 02:34:48;;;;;;;12.73;5.28;;;2.90;89.50;;;;;;5074364;28;20063;-32
2024/01/28 02:37:14;;;;;;;13.30;5.25;;;2.90;89.50;;;;;;5074385;28;20024;-34
2024/01/28 02:39:40;;;;;;;10.80;5.05;;;2.90;89.50;;;;;;5074204;28;20034;-35
2024/01/28 02:42:06;;;;;;;9.80;4.75;;;2.90;89.50;;;;;;5074162;28;20056;-35
2024/01/28 02:44:32;;;;;;;10.05;4.70;;;2.90;89.40;;;;;;5074575;28;20388;-37
2024/01/28 02:47:00;;;;;;;13.13;5.10;;;2.90;89.40;;;;;;5074220;28;20040;-35
2024/01/28 02:49:26;;;;;;;10.70;4.95;;;2.90;89.40;;;;;;5074447;28;20031;-32
2024/01/28 02:51:52;;;;;;;11.60;5.03;;;2.90;89.40;;;;;;5073868;28;20024;-33
2024/01/28 02:54:17;;;;;;;10.93;5.00;;;2.90;89.50;;;;;;5074112;28;20013;-37
2024/01/28 02:56:43;;;;;;;11.73;5.80;;;2.90;89.50;;;;;;5073886;28;20056;-31
2024/01/28 02:59:10;;;;;;;12.18;5.07;;;2.80;89.40;;;;;;5073874;28;20025;-36
2024/01/28 03:01:47;;;;;;;11.38;5.50;;;2.80;89.50;;;;;;5074173;28;20417;-34
2024/01/28 03:04:15;;;;;;;11.00;5.03;;;2.80;89.50;;;;;;5073772;28;20495;-41
2024/01/28 03:06:41;;;;;;;11.15;5.10;;;2.80;89.50;;;;;;5073600;28;20025;-35
2024/01/28 03:09:07;;;;;;;12.82;5.20;;;2.80;89.50;;;;;;5073742;28;20058;-35
2024/01/28 03:11:33;;;;;;;11.65;5.13;;;2.80;89.50;;;;;;5073437;28;20085;-31
2024/01/28 03:13:59;;;;;;;10.10;5.03;;;2.80;89.50;;;;;;5073582;28;20032;-31
2024/01/28 03:16:24;;;;;;;8.95;4.50;;;2.80;89.50;;;;;;5073603;28;20017;-40
2024/01/28 03:18:50;;;;;;;8.05;4.47;;;2.80;89.50;;;;;;5073579;28;20028;-37
2024/01/28 03:21:16;;;;;;;9.73;5.22;;;2.80;89.50;;;;;;5073328;28;20024;-36
2024/01/28 03:23:41;;;;;;;10.63;4.70;;;2.80;89.50;;;;;;5073232;28;20048;-32
2024/01/28 03:26:10;;;;;;;8.45;4.32;;;2.80;89.50;;;;;;5072752;28;20099;-36
2024/01/28 03:28:35;;;;;;;11.18;4.43;;;2.80;89.50;;;;;;5073522;28;20024;-29
2024/01/28 03:31:01;;;;;;;10.93;5.05;;;2.80;89.50;;;;;;5073299;28;20478;-34
2024/01/28 03:33:27;;;;;;;11.18;4.75;;;2.80;89.50;;;;;;5073238;28;20025;-30
2024/01/28 03:35:52;;;;;;;11.70;5.30;;;2.80;89.50;;;;;;5072856;28;20060;-31
2024/01/28 03:38:18;;;;;;;11.55;4.72;;;2.70;89.40;;;;;;5073225;28;20461;-31
2024/01/28 03:40:43;;;;;;;11.65;4.88;;;2.70;89.40;;;;;;5072580;28;20074;-32
2024/01/28 03:43:09;;;;;;;8.38;4.55;;;2.70;89.40;;;;;;5073158;28;20028;-33
2024/01/28 03:45:35;;;;;;;12.63;5.20;;;2.70;89.50;;;;;;5073155;28;20036;-35
2024/01/28 03:48:00;;;;;;;11.60;5.13;;;2.70;89.50;;;;;;5072854;28;20528;-34
2024/01/28 03:50:26;;;;;;;11.68;5.18;;;2.60;89.40;;;;;;5073278;28;20024;-34
2024/01/28 03:52:51;;;;;;;9.32;4.82;;;2.60;89.40;;;;;;5072845;28;20052;-31
2024/01/28 03:55:17;;;;;;;13.07;5.20;;;2.60;89.40;;;;;;5073046;28;20021;-30
2024/01/28 03:57:44;;;;;;;10.90;4.80;;;2.60;89.50;;;;;;5072738;28;20488;-33
2024/01/28 04:00:13;;;;;;;7.80;4.50;;;2.50;89.50;;;;;;5072782;28;20031;-33
2024/01/28 04:02:39;;;;;;;10.55;4.95;;;2.50;89.60;;;;;;5072272;28;20040;-30
2024/01/28 04:05:05;;;;;;;9.50;4.55;;;2.50;89.60;;;;;;5072672;28;20051;-31
2024/01/28 04:07:31;;;;;;;10.38;4.90;;;2.50;89.60;;;;;;5072486;28;20385;-30
2024/01/28 04:09:57;;;;;;;9.25;4.88;;;2.50;89.60;;;;;;5072799;28;20032;-31
2024/01/28 04:12:23;;;;;;;11.20;5.20;;;2.50;89.60;;;;;;5072549;28;20043;-33
2024/01/28 04:14:48;;;;;;;12.00;5.28;;;2.50;89.70;;;;;;5072425;28;20029;-38
2024/01/28 04:17:14;;;;;;;11.18;4.80;;;2.50;89.70;;;;;;5072313;28;20499;-31
2024/01/28 04:19:39;;;;;;;13.25;4.90;;;2.50;89.70;;;;;;5072288;28;20169;-35
2024/01/28 04:22:09;;;;;;;11.55;5.60;;;2.50;89.70;;;;;;5071945;28;20108;-33
2024/01/28 04:24:35;;;;;;;10.80;5.15;;;2.50;89.80;;;;;;5072632;28;20024;-35
2024/01/28 04:27:00;;;;;;;11.98;4.93;;;2.50;89.80;;;;;;5072152;28;20381;-31
2024/01/28 04:29:26;;;;;;;10.23;4.80;;;2.50;90.10;;;;;;5072187;28;20021;-34
2024/01/28 04:31:53;;;;;;;12.13;4.75;;;2.50;89.70;;;;;;5071959;28;20028;-33
2024/01/28 04:34:19;;;;;;;8.27;4.60;;;2.50;89.70;;;;;;5072268;28;20123;-35
2024/01/28 04:36:45;;;;;;;12.60;5.03;;;2.60;89.80;;;;;;5071967;28;20491;-35
2024/01/28 04:39:10;;;;;;;10.18;4.68;;;2.60;89.70;;;;;;5072023;28;20044;-35
2024/01/28 04:41:36;;;;;;;8.43;4.78;;;2.60;89.70;;;;;;5071619;28;20073;-32
2024/01/28 04:44:02;;;;;;;13.25;4.50;;;2.60;89.70;;;;;;5072136;28;20040;-36
2024/01/28 04:46:27;;;;;;;9.57;4.70;;;2.60;89.70;;;;;;5072138;28;20056;-39
2024/01/28 04:48:53;;;;;;;11.18;4.28;;;2.60;89.70;;;;;;5071862;28;20395;-36
2024/01/28 04:51:19;;;;;;;11.07;4.30;;;2.60;89.60;;;;;;5071755;28;20073;-37
2024/01/28 04:53:44;;;;;;;9.48;4.30;;;2.60;89.60;;;;;;5072128;28;20021;-31
2024/01/28 04:56:11;;;;;;;9.18;4.38;;;2.60;89.60;;;;;;5072088;28;20025;-37
2024/01/28 04:58:37;;;;;;;10.18;4.50;;;2.60;89.60;;;;;;5072029;28;20032;-39
2024/01/28 05:01:02;;;;;;;8.68;4.40;;;2.50;89.60;;;;;;5071790;28;20074;-34
2024/01/28 05:03:28;;;;;;;7.22;3.97;;;2.60;89.70;;;;;;5071630;28;20025;-36
2024/01/28 05:05:53;;;;;;;10.52;4.28;;;2.60;89.60;;;;;;5071604;28;20027;-34
2024/01/28 05:08:19;;;;;;;9.70;4.57;;;2.50;89.60;;;;;;5071794;28;20056;-45
2024/01/28 05:10:44;;;;;;;8.23;4.18;;;2.60;89.60;;;;;;5071413;28;20479;-39
2024/01/28 05:13:10;;;;;;;9.23;5.10;;;2.60;89.60;;;;;;5071922;28;20099;-35
2024/01/28 05:15:35;;;;;;;10.15;4.35;;;2.60;89.60;;;;;;5071705;28;20447;-34
2024/01/28 05:18:01;;;;;;;8.18;4.38;;;2.60;89.60;;;;;;5071473;28;20410;-34
2024/01/28 05:20:26;;;;;;;9.43;3.85;;;2.60;89.50;;;;;;5071535;28;20025;-33
2024/01/28 05:22:52;;;;;;;7.82;4.50;;;2.60;89.50;;;;;;5069996;28;20086;-39
2024/01/28 05:25:17;;;;;;;10.10;4.72;;;2.60;89.50;;;;;;5071540;28;20111;-37
2024/01/28 05:27:44;;;;;;;8.95;4.47;;;2.60;89.50;;;;;;5071844;28;20016;-35
2024/01/28 05:30:09;;;;;;;9.35;4.28;;;2.50;89.40;;;;;;5071457;28;20028;-32
2024/01/28 05:32:35;;;;;;;9.75;4.45;;;2.50;89.30;;;;;;5071699;28;20146;-34
2024/01/28 05:35:04;;;;;;;11.05;4.55;;;2.50;89.30;;;;;;5071237;28;20044;-32
2024/01/28 05:37:30;;;;;;;7.40;4.18;;;2.50;89.40;;;;;;5071523;28;20083;-35
2024/01/28 05:39:57;;;;;;;9.55;4.28;;;2.50;89.50;;;;;;5071494;28;20488;-32
2024/01/28 05:42:22;;;;;;;7.90;4.10;;;2.50;89.50;;;;;;5071156;28;20037;-32
2024/01/28 05:44:48;;;;;;;9.63;4.38;;;2.50;89.50;;;;;;5071433;28;20032;-31
2024/01/28 05:47:14;;;;;;;10.15;4.00;;;2.50;89.50;;;;;;5071400;28;20529;-30
2024/01/28 05:49:41;;;;;;;9.05;4.13;;;2.50;89.50;;;;;;5073163;28;20465;-32
2024/01/28 05:52:06;;;;;;;6.13;3.90;;;2.50;89.50;;;;;;5075035;28;20035;-42
2024/01/28 05:54:32;;;;;;;11.57;4.82;;;2.50;89.40;;;;;;5075126;28;20028;-43
2024/01/28 05:56:59;;;;;;;11.50;5.30;;;2.50;89.50;;;;;;5075291;28;20024;-33
2024/01/28 05:59:24;;;;;;;11.38;4.50;;;2.50;89.40;;;;;;5075532;28;20512;-32
2024/01/28 06:01:50;;;;;;;8.18;4.85;;;2.50;89.40;;;;;;5074747;28;20059;-32
2024/01/28 06:04:15;;;;;;;10.18;4.35;;;2.50;89.50;;;;;;5074916;28;20020;-34
2024/01/28 06:06:42;;;;;;;8.20;4.80;;;2.40;89.40;;;;;;5074967;28;20540;-31
2024/01/28 06:09:09;;;;;;;9.60;4.32;;;2.40;89.40;;;;;;5073674;28;20477;-30
2024/01/28 06:11:36;;;;;;;10.27;4.78;;;2.40;89.40;;;;;;5074962;28;20483;-32
2024/01/28 06:14:02;;;;;;;10.85;4.63;;;2.40;89.50;;;;;;5075121;28;20040;-37
2024/01/28 06:16:27;;;;;;;11.77;4.78;;;2.40;89.40;;;;;;5074592;28;20024;-33
2024/01/28 06:18:53;;;;;;;12.68;5.13;;;2.40;89.40;;;;;;5075031;28;20033;-32
2024/01/28 06:21:18;;;;;;;8.98;4.22;;;2.40;89.40;;;;;;5074612;28;20166;-34
2024/01/28 06:23:45;;;;;;;7.13;4.07;;;2.40;89.40;;;;;;5074899;28;20028;-37
2024/01/28 06:26:11;;;;;;;9.68;4.18;;;2.40;89.50;;;;;;5074912;28;20524;-31
2024/01/28 06:28:36;;;;;;;12.35;4.70;;;2.40;89.50;;;;;;5074899;28;20113;-33
2024/01/28 06:31:02;;;;;;;9.00;4.88;;;2.40;89.50;;;;;;5074374;28;20035;-33
2024/01/28 06:33:28;;;;;;;11.18;4.40;;;2.40;89.50;;;;;;5074733;28;20422;-39
2024/01/28 06:35:53;;;;;;;11.07;4.75;;;2.40;89.50;;;;;;5074142;28;20574;-34
2024/01/28 06:38:19;;;;;;;13.43;4.70;;;2.40;89.40;;;;;;5074533;28;20028;-37
2024/01/28 06:40:45;;;;;;;11.32;5.03;;;2.40;89.40;;;;;;5074340;28;20036;-31
2024/01/28 06:43:11;;;;;;;10.07;4.60;;;2.40;89.40;;;;;;5074054;28;20027;-35
2024/01/28 06:45:36;;;;;;;11.07;5.05;;;2.40;89.50;;;;;;5071761;28;20025;-35
2024/01/28 06:48:02;;;;;;;7.20;4.40;;;2.40;89.40;;;;;;5072902;28;20373;-37
2024/01/28 06:50:27;;;;;;;9.98;4.63;;;2.40;89.40;;;;;;5073431;28;20028;-34
2024/01/28 06:52:53;;;;;;;10.70;5.22;;;2.40;89.40;;;;;;5074025;28;20477;-35
2024/01/28 06:55:18;;;;;;;8.82;4.88;;;2.40;89.40;;;;;;5074362;28;20020;-35
2024/01/28 06:57:45;;;;;;;11.00;4.75;;;2.30;89.30;;;;;;5073912;28;20024;-31
2024/01/28 07:00:13;;;;;;;8.50;4.70;;;2.40;89.40;;;;;;5073396;28;20516;-42
2024/01/28 07:02:39;;;;;;;7.68;5.10;;;2.40;89.40;;;;;;5073392;28;20488;-38
2024/01/28 07:05:05;;;;;;;9.10;4.85;;;2.30;89.30;;;;;;5074103;28;20105;-31
2024/01/28 07:07:30;;;;;;;13.30;4.60;;;2.30;89.30;;;;;;5074046;28;20020;-39
2024/01/28 07:09:56;;;;;;;10.05;4.07;;;2.40;89.40;;;;;;5073762;28;20043;-36
2024/01/28 07:12:21;;;;;;;9.95;4.18;;;2.30;89.30;;;;;;5073749;28;20037;-35
2024/01/28 07:14:47;;;;;;;8.35;4.40;;;2.30;89.30;;;;;;5074190;28;20031;-34
2024/01/28 07:17:13;;;;;;;9.90;4.25;;;2.30;89.30;;;;;;5073908;28;20078;-33
2024/01/28 07:19:40;;;;;;;11.57;4.53;;;2.30;89.30;;;;;;5073867;28;20051;-31
2024/01/28 07:22:06;;;;;;;7.30;4.35;;;2.30;89.30;;;;;;5073727;28;20119;-32
2024/01/28 07:24:31;;;;;;;7.80;4.72;;;2.30;89.30;;;;;;5072415;28;20481;-33
2024/01/28 07:26:57;;;;;;;8.98;4.50;;;2.30;89.30;;;;;;5073389;28;20461;-36
2024/01/28 07:29:22;;;;;;;10.20;4.43;;;2.30;89.90;;;;;;5073764;28;20030;-38
2024/01/28 07:31:48;;;;;;;9.50;4.53;;;2.30;89.90;;;;;;5073408;28;20027;-32
2024/01/28 07:34:18;;;;;;;9.80;4.03;;;2.30;89.30;;;;;;5073156;28;20046;-36
2024/01/28 07:36:45;;;;;;;9.90;3.88;;;2.30;89.30;;;;;;5073530;28;20031;-35
2024/01/28 07:39:13;;;;;;;10.95;4.07;;;2.40;89.30;;;;;;5073699;28;20116;-34
2024/01/28 07:41:38;;;;;;;7.72;3.95;;;2.40;89.30;;;;;;5073496;28;20028;-35
2024/01/28 07:44:04;;;;;;;8.50;4.18;;;2.40;89.20;;;;;;5073041;28;20033;-35
2024/01/28 07:46:29;;;;;;;10.50;4.20;;;2.50;89.10;;;;;;5071749;28;20095;-32
2024/01/28 07:48:55;;;;;;;7.30;3.63;;;2.60;89.10;;;;;;5073026;28;20056;-33
2024/01/28 07:51:21;;;;;;;6.80;3.45;;;2.60;89.00;;;;;;5072969;28;20036;-34
2024/01/28 07:53:46;;;;;;;8.43;3.90;;;2.70;89.00;;;;;;5072944;28;20029;-38
2024/01/28 07:56:12;;;;;;;9.57;3.60;;;2.70;88.90;;;;;;5072788;28;20028;-32
2024/01/28 07:58:37;;;;;;;8.93;4.05;;;2.70;88.80;;;;;;5072940;28;20024;-32
2024/01/28 08:01:05;;;;;;;9.63;3.78;;;2.80;88.80;;;;;;5072585;28;20035;-35
2024/01/28 08:03:30;;;;;;;9.30;3.95;;;2.80;88.70;;;;;;5072837;28;20035;-33
2024/01/28 08:05:56;;;;;;;5.07;3.75;;;2.90;88.70;;;;;;5072773;28;20381;-41
2024/01/28 08:08:21;;;;;;;10.23;6.40;;;2.90;88.60;;;;;;5072975;28;20074;-36
2024/01/28 08:10:49;;;;;;;14.00;7.03;;;3.00;88.60;;;;;;5071237;28;20020;-35
2024/01/28 08:13:14;;;;;;;10.20;6.20;;;3.10;88.60;;;;;;5072329;28;20040;-32
2024/01/28 08:15:43;;;;;;;12.73;7.38;;;3.20;88.60;;;;;;5072663;28;20029;-36
2024/01/28 08:18:12;;;;;;;9.43;6.00;;;3.30;88.50;;;;;;5072618;28;20028;-34
2024/01/28 08:20:37;;;;;;;13.85;7.22;;;3.40;88.40;;;;;;5072572;28;20060;-36
2024/01/28 08:23:04;;;;;;;8.15;4.90;;;3.40;88.20;;;;;;5072234;28;20488;-34
2024/01/28 08:25:29;;;;;;;10.80;4.45;;;3.50;88.10;;;;;;5072452;28;20086;-32
2024/01/28 08:27:56;;;;;;;7.55;3.63;;;3.60;88.10;;;;;;5070968;28;20024;-35
2024/01/28 08:30:23;;;;;;;10.20;3.67;;;3.60;88.00;;;;;;5072320;28;20029;-34
2024/01/28 08:32:49;;;;;;;8.80;4.30;;;3.60;87.90;;;;;;5072490;28;20528;-37
2024/01/28 08:35:16;;;;;;;9.90;3.38;;;3.60;87.80;;;;;;5072302;28;20171;-34
2024/01/28 08:37:42;;;;;;;8.85;3.38;;;3.60;87.80;;;;;;5072096;28;20057;-34
2024/01/28 08:40:08;;;;;;;6.05;3.80;;;3.60;87.70;;;;;;5072311;28;20430;-35
2024/01/28 08:42:34;;;;;;;8.25;3.40;;;3.60;87.60;;;;;;5072203;28;20115;-32
2024/01/28 08:45:00;;;;;;;8.18;3.50;;;3.60;87.60;;;;;;5072057;28;20056;-33
2024/01/28 08:47:25;;;;;;;5.78;2.97;;;3.70;87.70;;;;;;5070730;28;20070;-32
2024/01/28 08:49:51;;;;;;;8.95;3.30;;;3.70;87.60;;;;;;5072138;28;20117;-33
2024/01/28 08:52:17;;;;;;;6.20;3.15;;;3.70;87.60;;;;;;5071850;28;20392;-33
2024/01/28 08:54:45;;;;;;;6.10;3.50;;;3.70;87.60;;;;;;5071943;28;20090;-36
2024/01/28 08:57:12;;;;;;;8.40;3.25;;;3.70;87.60;;;;;;5072374;28;20379;-33
2024/01/28 08:59:37;;;;;;;7.57;3.45;;;3.70;88.10;;;;;;5070483;28;20017;-35
2024/01/28 09:02:03;;;;;;;7.18;3.55;;;3.80;87.50;;;;;;5071503;28;20027;-32
2024/01/28 09:04:29;;;;;;;7.50;3.45;;;3.80;87.40;;;;;;5070600;28;20388;-31
2024/01/28 09:06:55;;;;;;;6.53;3.25;;;3.80;87.20;;;;;;5071765;28;20031;-36
2024/01/28 09:09:21;;;;;;;7.82;3.17;;;3.80;87.20;;;;;;5072213;28;20017;-36
2024/01/28 09:11:47;;;;;;;6.60;3.10;;;3.90;87.10;;;;;;5071680;28;20051;-32
2024/01/28 09:14:12;;;;;;;8.07;3.50;;;3.90;87.00;;;;;;5071796;28;20472;-33
2024/01/28 09:16:38;;;;;;;6.13;2.83;;;4.00;87.00;;;;;;5070348;28;20090;-32
2024/01/28 09:19:04;;;;;;;7.00;3.00;;;4.00;86.80;;;;;;5071642;28;20020;-34
2024/01/28 09:21:32;;;;;;;5.35;2.85;;;4.10;86.80;;;;;;5071768;28;20503;-35
2024/01/28 09:23:58;;;;;;;8.30;3.20;;;4.10;87.20;;;;;;5072006;28;20054;-31
2024/01/28 09:26:24;;;;;;;6.65;2.75;;;4.20;86.60;;;;;;5076206;28;20039;-32
2024/01/28 09:28:49;;;;;;;5.47;2.75;;;4.20;86.50;;;;;;5076068;28;20025;-37
2024/01/28 09:31:15;;;;;;;8.60;2.72;;;4.30;86.40;;;;;;5076133;28;20017;-34
2024/01/28 09:33:42;;;;;;;5.68;3.00;;;4.30;86.30;;;;;;5075754;28;20073;-35
2024/01/28 09:36:08;;;;;;;7.75;2.97;;;4.30;86.20;;;;;;5075875;28;20360;-30
2024/01/28 09:38:34;;;;;;;4.38;2.70;;;4.40;86.20;;;;;;5075770;28;20147;-32
2024/01/28 09:41:16;;;;;;;6.25;2.85;;;4.40;86.00;;;;;;5075352;28;20052;-37
2024/01/28 09:43:43;;;;;;;5.75;2.50;;;4.50;85.90;;;;;;5075595;28;20031;-35
2024/01/28 09:46:09;;;;;;;6.55;2.70;;;4.60;85.90;;;;;;5075804;28;20031;-35
2024/01/28 09:48:35;;;;;;;5.30;2.75;;;4.60;85.80;;;;;;5075330;28;20416;-34
2024/01/28 09:51:00;;;;;;;5.28;2.90;;;4.60;85.60;;;;;;5075183;28;20384;-31
2024/01/28 09:53:26;;;;;;;7.10;2.70;;;4.60;85.50;;;;;;5075290;28;20025;-33
2024/01/28 09:55:52;;;;;;;6.30;2.22;;;4.70;85.50;;;;;;5075482;28;20485;-33
2024/01/28 09:58:18;;;;;;;5.00;2.42;;;4.80;85.40;;;;;;5075274;28;20484;-39
2024/01/28 10:00:45;;;;;;;6.00;2.80;;;4.80;85.30;;;;;;5075024;28;20024;-34
2024/01/28 10:03:11;;;;;;;5.95;2.83;;;4.80;85.10;;;;;;5075342;28;20059;-32
2024/01/28 10:05:36;;;;;;;4.20;2.45;;;4.90;85.00;;;;;;5075561;28;20048;-33
2024/01/28 10:08:05;;;;;;;5.65;2.60;;;4.90;84.90;;;;;;5074960;28;20028;-36
2024/01/28 10:10:34;;;;;;;6.15;2.70;;;5.00;85.40;;;;;;5073882;28;20221;-31
2024/01/28 10:13:02;;;;;;;4.82;2.42;;;5.10;84.70;;;;;;5075223;28;20031;-33
2024/01/28 10:15:30;;;;;;;6.63;3.00;;;5.10;84.50;;;;;;5074847;28;20091;-36
2024/01/28 10:17:56;;;;;;;4.43;2.50;;;5.20;84.40;;;;;;5074869;28;20021;-32
2024/01/28 10:20:23;;;;;;;5.95;2.65;;;5.20;84.30;;;;;;5074546;28;20028;-33
2024/01/28 10:22:51;;;;;;;5.80;2.80;;;5.30;84.20;;;;;;5074863;28;20376;-36
2024/01/28 10:25:17;;;;;;;4.20;2.60;;;5.30;84.10;;;;;;5073247;28;20058;-39
2024/01/28 10:27:44;;;;;;;4.85;2.95;;;5.40;84.60;;;;;;5074821;28;20400;-36
2024/01/28 10:30:11;;;;;;;6.85;2.63;;;5.40;83.90;;;;;;5074351;28;20020;-36
2024/01/28 10:32:37;;;;;;;6.22;2.78;;;5.50;83.70;;;;;;5074706;28;20463;-36
2024/01/28 10:35:07;;;;;;;6.18;2.85;;;5.50;83.60;;;;;;5073895;28;20036;-38
2024/01/28 10:37:33;;;;;;;4.80;2.50;;;5.60;83.30;;;;;;5074429;28;20370;-35
2024/01/28 10:40:03;;;;;;;6.70;3.00;;;5.70;83.30;;;;;;5074263;28;20035;-33
2024/01/28 10:42:32;;;;;;;4.30;2.30;;;5.70;83.20;;;;;;5074145;28;20032;-38
2024/01/28 10:44:58;;;;;;;6.93;3.00;;;5.80;83.30;;;;;;5074382;28;20104;-31
2024/01/28 10:47:26;;;;;;;4.90;2.70;;;5.80;83.10;;;;;;5074253;28;20476;-33
2024/01/28 10:49:59;;;;;;;5.22;2.67;;;5.90;83.00;;;;;;5074509;28;20500;-39
2024/01/28 10:52:26;;;;;;;5.40;2.83;;;6.00;82.90;;;;;;5074073;28;20078;-39
2024/01/28 10:54:52;;;;;;;5.65;2.65;;;6.00;82.90;;;;;;5074372;28;20301;-33
2024/01/28 10:57:20;;;;;;;5.50;2.72;;;6.10;82.70;;;;;;5074096;28;20366;-33
2024/01/28 10:59:46;;;;;;;5.70;2.58;;;6.10;82.50;;;;;;5073958;28;20017;-37
2024/01/28 11:02:12;;;;;;;4.95;2.70;;;6.20;82.50;;;;;;5073571;28;20093;-38
2024/01/28 11:04:39;;;;;;;7.72;2.50;;;6.20;82.40;;;;;;5074087;28;20468;-37
2024/01/28 11:07:06;;;;;;;4.05;2.40;;;6.30;82.40;;;;;;5072382;28;20028;-35
2024/01/28 11:09:32;;;;;;;4.63;2.30;;;6.30;82.20;;;;;;5072943;28;20031;-39
2024/01/28 11:11:58;;;;;;;4.38;2.45;;;6.40;82.20;;;;;;5073899;28;20404;-34
2024/01/28 11:14:27;;;;;;;5.55;2.50;;;6.40;82.10;;;;;;5073669;28;20020;-34
2024/01/28 11:16:53;;;;;;;5.88;2.55;;;6.50;81.90;;;;;;5073619;28;20020;-33
2024/01/28 11:19:18;;;;;;;4.30;2.55;;;6.50;81.80;;;;;;5074198;28;20135;-35
2024/01/28 11:21:52;;;;;;;4.75;2.42;;;6.60;81.70;;;;;;5073402;28;20027;-33
2024/01/28 11:24:18;;;;;;;5.35;2.28;;;6.60;81.50;;;;;;5073507;28;20028;-34
2024/01/28 11:26:47;;;;;;;4.82;2.40;;;6.70;81.40;;;;;;5073462;28;20035;-36
2024/01/28 11:29:15;;;;;;;3.72;2.33;;;6.70;81.30;;;;;;5073429;28;20028;-37
2024/01/28 11:31:42;;;;;;;3.35;2.40;;;6.70;81.20;;;;;;5071850;28;20024;-37
2024/01/28 11:34:21;;;;;;;5.82;2.70;;;6.80;81.20;;;;;;5073641;28;20065;-37
2024/01/28 11:36:51;;;;;;;5.05;2.20;;;6.90;81.10;;;;;;5073012;28;20031;-34
2024/01/28 11:39:35;;;;;;;5.22;2.47;;;6.90;80.80;;;;;;5073263;28;20047;-36
2024/01/28 11:42:01;;;;;;;4.82;2.50;;;6.90;80.70;;;;;;5072858;28;20034;-35
2024/01/28 11:44:27;;;;;;;5.10;2.30;;;7.00;80.60;;;;;;5072947;28;20127;-30
2024/01/28 11:46:54;;;;;;;4.53;2.60;;;7.10;80.60;;;;;;5072181;28;20092;-35
2024/01/28 11:49:20;;;;;;;5.57;2.65;;;7.20;80.30;;;;;;5073048;28;20485;-36
2024/01/28 11:51:46;;;;;;;5.97;2.33;;;7.20;80.10;;;;;;5072899;28;20044;-37
2024/01/28 11:54:11;;;;;;;4.47;2.42;;;7.20;80.00;;;;;;5073262;28;20026;-32
2024/01/28 11:56:37;;;;;;;7.03;2.67;;;7.30;80.00;;;;;;5072859;28;20021;-32
2024/01/28 11:59:03;;;;;;;6.38;2.38;;;7.30;80.00;;;;;;5072768;28;20150;-42
2024/01/28 12:01:29;;;;;;;4.38;2.50;;;7.40;79.90;;;;;;5072517;28;20104;-43
2024/01/28 12:03:55;;;;;;;6.75;2.60;;;7.50;79.80;;;;;;5072662;28;20104;-45
2024/01/28 12:06:30;;;;;;;4.40;2.22;;;7.50;79.70;;;;;;5072761;28;20028;-33
2024/01/28 12:08:56;;;;;;;5.15;2.42;;;7.60;80.20;;;;;;5072634;28;20051;-43
2024/01/28 12:11:24;;;;;;;5.18;2.50;;;7.60;79.50;;;;;;5072415;28;20032;-39
2024/01/28 12:13:50;;;;;;;4.80;2.50;;;7.70;79.40;;;;;;5072818;28;20108;-37
2024/01/28 12:16:21;;;;;;;7.43;2.65;;;7.70;79.30;;;;;;5072278;28;20074;-38
2024/01/28 12:18:47;;;;;;;8.00;2.40;;;7.80;79.10;;;;;;5072151;28;20063;-37
2024/01/28 12:21:23;;;;;;;6.05;2.70;;;7.80;79.20;;;;;;5072508;28;20068;-42
2024/01/28 12:23:59;;;;;;;5.20;2.20;;;7.90;78.90;;;;;;5072148;28;20028;-39
2024/01/28 12:26:29;;;;;;;4.00;2.33;;;7.90;79.20;;;;;;5072383;28;20047;-38
2024/01/28 12:28:55;;;;;;;4.18;2.10;;;7.90;79.20;;;;;;5072224;28;20074;-41
2024/01/28 12:31:21;;;;;;;4.20;2.40;;;8.00;79.20;;;;;;5072098;28;20384;-43
2024/01/28 12:33:48;;;;;;;6.95;3.00;;;8.00;79.20;;;;;;5071908;28;20021;-39
2024/01/28 12:36:14;;;;;;;3.20;2.20;;;8.00;79.20;;;;;;5072068;28;20028;-40
2024/01/28 12:38:40;;;;;;;5.00;2.40;;;8.10;79.20;;;;;;5071968;28;20104;-35
2024/01/28 12:41:06;;;;;;;5.43;2.45;;;8.20;79.20;;;;;;5071800;28;20560;-37
2024/01/28 12:43:32;;;;;;;4.85;2.00;;;8.20;79.30;;;;;;5071842;28;20044;-32
2024/01/28 12:45:58;;;;;;;5.50;2.28;;;8.30;79.20;;;;;;5072046;28;20468;-35
2024/01/28 12:48:23;;;;;;;6.88;2.10;;;8.30;79.10;;;;;;5071894;28;20027;-39